createdAt,value
2022-09-28T00:01:09.289Z,93.02
2022-09-28T00:03:36.957Z,93.16
2022-09-28T00:06:08.939Z,92.82
2022-09-28T00:08:36.707Z,93.20
2022-09-28T00:11:05.073Z,93.19
2022-09-28T00:13:33.248Z,93.39
2022-09-28T00:16:17.262Z,93.46
2022-09-28T00:18:45.608Z,94.23
2022-09-28T00:21:17.518Z,94.22
2022-09-28T00:24:03.369Z,94.71
2022-09-28T00:26:32.041Z,93.86
2022-09-28T00:29:00.886Z,94.45
2022-09-28T00:31:30.259Z,94.83
2022-09-28T00:33:57.449Z,95.13
2022-09-28T00:36:24.691Z,94.80
2022-09-28T00:38:52.312Z,94.54
2022-09-28T00:41:19.091Z,93.52
2022-09-28T00:43:45.995Z,93.83
2022-09-28T00:46:18.233Z,93.82
2022-09-28T00:48:55.323Z,93.06
2022-09-28T00:51:24.051Z,92.76
2022-09-28T00:53:51.147Z,92.76
2022-09-28T00:56:20.603Z,92.48
2022-09-28T00:58:50.426Z,92.08
2022-09-28T01:01:17.513Z,91.62
2022-09-28T01:03:48.717Z,92.31
2022-09-28T01:06:20.278Z,92.08
2022-09-28T01:08:50.482Z,92.55
2022-09-28T01:11:18.812Z,92.45
2022-09-28T01:13:47.094Z,92.44
2022-09-28T01:16:16.989Z,92.77
2022-09-28T01:19:01.856Z,92.98
2022-09-28T01:21:28.627Z,93.27
2022-09-28T01:24:24.680Z,93.63
2022-09-28T01:27:06.368Z,93.35
2022-09-28T01:30:12.319Z,93.59
2022-09-28T01:32:54.670Z,94.23
2022-09-28T01:35:31.357Z,94.39
2022-09-28T01:38:19.601Z,93.66
2022-09-28T01:40:47.389Z,93.95
2022-09-28T01:43:17.993Z,94.79
2022-09-28T01:45:50.977Z,95.35
2022-09-28T01:48:29.485Z,95.26
2022-09-28T01:50:59.588Z,95.41
2022-09-28T01:53:33.215Z,95.39
2022-09-28T01:56:04.856Z,95.27
2022-09-28T01:58:39.525Z,95.26
2022-09-28T02:01:18.293Z,95.22
2022-09-28T02:04:01.172Z,95.17
2022-09-28T02:06:38.856Z,95.13
2022-09-28T02:09:11.632Z,95.58
2022-09-28T02:11:43.010Z,95.23
2022-09-28T02:14:11.849Z,95.39
2022-09-28T02:16:42.436Z,94.75
2022-09-28T02:19:12.977Z,94.71
2022-09-28T02:21:54.980Z,95.21
2022-09-28T02:24:34.169Z,95.40
2022-09-28T02:27:06.779Z,95.32
2022-09-28T02:29:33.535Z,95.08
2022-09-28T02:32:00.421Z,95.01
2022-09-28T02:34:27.264Z,95.01
2022-09-28T02:36:54.254Z,95.28
2022-09-28T02:39:20.982Z,95.44
2022-09-28T02:41:59.785Z,94.06
2022-09-28T02:44:40.065Z,94.45
2022-09-28T02:47:39.107Z,94.48
2022-09-28T02:50:20.846Z,94.39
2022-09-28T02:53:05.550Z,94.14
2022-09-28T02:55:43.588Z,93.75
2022-09-28T02:58:19.307Z,94.03
2022-09-28T03:01:15.445Z,94.20
2022-09-28T03:03:55.595Z,93.73
2022-09-28T03:06:27.538Z,94.04
2022-09-28T03:09:03.355Z,94.13
2022-09-28T03:11:53.039Z,94.13
2022-09-28T03:14:21.242Z,94.32
2022-09-28T03:16:48.091Z,94.58
2022-09-28T03:19:17.028Z,94.45
2022-09-28T03:21:43.923Z,94.50
2022-09-28T03:24:11.208Z,93.23
2022-09-28T03:26:38.957Z,93.87
2022-09-28T03:29:06.008Z,93.79
2022-09-28T03:31:32.838Z,94.04
2022-09-28T03:33:59.762Z,94.14
2022-09-28T03:36:26.569Z,94.50
2022-09-28T03:38:56.532Z,94.22
2022-09-28T03:41:27.814Z,94.16
2022-09-28T03:43:54.923Z,94.11
2022-09-28T03:46:21.886Z,94.21
2022-09-28T03:48:48.920Z,94.13
2022-09-28T03:51:15.754Z,94.26
2022-09-28T03:53:42.627Z,94.34
2022-09-28T03:56:14.172Z,94.19
2022-09-28T03:58:41.080Z,94.64
2022-09-28T04:01:16.625Z,94.97
2022-09-28T04:03:44.031Z,94.57
2022-09-28T04:06:11.305Z,94.24
2022-09-28T04:08:38.552Z,94.29
2022-09-28T04:11:05.601Z,94.41
2022-09-28T04:13:32.791Z,94.37
2022-09-28T04:16:01.334Z,94.53
2022-09-28T04:18:29.291Z,94.78
2022-09-28T04:21:22.211Z,95.07
2022-09-28T04:23:49.286Z,95.00
2022-09-28T04:26:19.861Z,95.72
2022-09-28T04:29:06.927Z,95.66
2022-09-28T04:31:38.985Z,95.73
2022-09-28T04:34:05.842Z,95.97
2022-09-28T04:36:32.702Z,96.14
2022-09-28T04:39:00.143Z,96.37
2022-09-28T04:41:29.135Z,97.13
2022-09-28T04:43:57.264Z,96.90
2022-09-28T04:46:24.127Z,96.86
2022-09-28T04:48:51.063Z,96.82
2022-09-28T04:51:17.942Z,97.21
2022-09-28T04:53:44.729Z,97.51
2022-09-28T04:56:13.559Z,97.75
2022-09-28T04:58:41.024Z,97.71
2022-09-28T05:01:12.170Z,97.97
2022-09-28T05:03:39.459Z,98.09
2022-09-28T05:06:09.325Z,98.29
2022-09-28T05:08:36.257Z,98.22
2022-09-28T05:11:05.073Z,98.52
2022-09-28T05:13:33.262Z,98.44
2022-09-28T05:16:05.070Z,98.84
2022-09-28T05:18:32.782Z,98.48
2022-09-28T05:20:59.835Z,98.49
2022-09-28T05:23:26.657Z,97.79
2022-09-28T05:25:53.585Z,97.85
2022-09-28T05:28:25.193Z,97.23
2022-09-28T05:30:52.334Z,95.39
2022-09-28T05:33:19.222Z,93.37
2022-09-28T05:35:49.794Z,92.95
2022-09-28T05:38:19.425Z,92.51
2022-09-28T05:40:46.378Z,92.71
2022-09-28T05:43:13.207Z,91.57
2022-09-28T05:45:40.210Z,90.10
2022-09-28T05:48:07.021Z,89.06
2022-09-28T05:50:34.103Z,87.30
2022-09-28T05:53:06.375Z,86.32
2022-09-28T05:55:33.646Z,82.40
2022-09-28T05:58:02.291Z,81.26
2022-09-28T06:00:30.144Z,79.03
2022-09-28T06:02:58.688Z,79.38
2022-09-28T06:05:26.335Z,79.22
2022-09-28T06:07:56.157Z,80.61
2022-09-28T06:10:23.418Z,79.50
2022-09-28T06:12:54.523Z,79.08
2022-09-28T06:15:23.115Z,78.44
2022-09-28T06:17:58.982Z,78.39
2022-09-28T06:20:26.967Z,78.00
2022-09-28T06:22:54.212Z,78.73
2022-09-28T06:25:22.191Z,78.29
2022-09-28T06:27:55.737Z,78.07
2022-09-28T06:30:24.262Z,78.12
2022-09-28T06:32:58.550Z,77.00
2022-09-28T06:35:27.474Z,76.55
2022-09-28T06:37:54.268Z,75.49
2022-09-28T06:40:21.543Z,74.48
2022-09-28T06:42:59.334Z,75.15
2022-09-28T06:45:27.867Z,75.46
2022-09-28T06:48:01.266Z,75.21
2022-09-28T06:50:34.688Z,73.65
2022-09-28T06:53:01.851Z,74.04
2022-09-28T06:55:28.933Z,74.31
2022-09-28T06:58:06.658Z,73.96
2022-09-28T07:00:35.341Z,73.46
2022-09-28T07:03:04.009Z,73.37
2022-09-28T07:05:34.551Z,72.85
2022-09-28T07:08:02.054Z,71.72
2022-09-28T07:10:30.404Z,71.17
2022-09-28T07:12:58.132Z,68.13
2022-09-28T07:15:25.412Z,70.62
2022-09-28T07:18:02.839Z,70.38
2022-09-28T07:20:41.217Z,69.30
2022-09-28T07:23:19.377Z,67.56
2022-09-28T07:25:49.615Z,61.49
2022-09-28T07:28:17.398Z,65.00
2022-09-28T07:30:44.694Z,65.92
2022-09-28T07:33:14.554Z,67.11
2022-09-28T07:35:42.496Z,67.50
2022-09-28T07:38:10.602Z,66.45
2022-09-28T07:40:55.876Z,67.16
2022-09-28T07:43:22.693Z,67.29
2022-09-28T07:45:52.411Z,64.92
2022-09-28T07:48:20.115Z,66.26
2022-09-28T07:50:55.137Z,65.75
2022-09-28T07:53:23.610Z,65.28
2022-09-28T07:56:02.012Z,62.84
2022-09-28T07:58:29.346Z,62.44
2022-09-28T08:00:56.285Z,63.87
2022-09-28T08:03:23.038Z,62.88
2022-09-28T08:05:49.958Z,62.19
2022-09-28T08:08:16.909Z,56.83
2022-09-28T08:10:46.978Z,60.06
2022-09-28T08:13:15.277Z,58.63
2022-09-28T08:15:42.639Z,59.77
2022-09-28T08:18:10.230Z,58.91
2022-09-28T08:20:55.673Z,58.38
2022-09-28T08:23:23.545Z,58.58
2022-09-28T08:25:52.736Z,58.81
2022-09-28T08:28:22.637Z,58.52
2022-09-28T08:30:50.182Z,58.02
2022-09-28T08:33:20.406Z,58.97
2022-09-28T08:35:48.276Z,59.92
2022-09-28T08:38:15.339Z,59.40
2022-09-28T08:41:05.577Z,58.19
2022-09-28T08:43:39.447Z,58.40
2022-09-28T08:46:07.026Z,59.19
2022-09-28T08:48:51.756Z,57.89
2022-09-28T08:51:29.332Z,58.75
2022-09-28T08:54:00.968Z,60.35
2022-09-28T08:56:32.036Z,60.43
2022-09-28T08:59:03.806Z,60.04
2022-09-28T09:01:38.655Z,61.70
2022-09-28T09:04:06.628Z,61.15
2022-09-28T09:06:51.007Z,59.76
2022-09-28T09:09:36.224Z,63.17
2022-09-28T09:12:14.319Z,61.14
2022-09-28T09:15:04.938Z,61.58
2022-09-28T09:18:22.369Z,60.98
2022-09-28T09:21:01.406Z,63.52
2022-09-28T09:23:39.461Z,61.45
2022-09-28T09:26:21.732Z,61.61
2022-09-28T09:29:08.536Z,61.28
2022-09-28T09:32:04.358Z,62.39
2022-09-28T09:34:42.946Z,60.81
2022-09-28T09:37:21.537Z,58.84
2022-09-28T09:40:11.024Z,58.86
2022-09-28T09:42:43.735Z,58.80
2022-09-28T09:45:30.549Z,58.48
2022-09-28T09:48:03.543Z,59.32
2022-09-28T09:50:30.638Z,58.18
2022-09-28T09:53:27.102Z,57.44
2022-09-28T09:55:57.429Z,56.89
2022-09-28T09:58:48.000Z,57.43
2022-09-28T10:01:18.564Z,57.60
2022-09-28T10:03:48.193Z,57.25
2022-09-28T10:06:21.153Z,56.88
2022-09-28T10:09:11.339Z,56.07
2022-09-28T10:11:46.811Z,56.02
2022-09-28T10:14:20.075Z,56.65
2022-09-28T10:16:48.571Z,55.36
2022-09-28T10:19:17.533Z,55.69
2022-09-28T10:21:46.880Z,54.64
2022-09-28T10:24:35.310Z,55.06
2022-09-28T10:27:18.437Z,54.86
2022-09-28T10:29:55.602Z,55.67
2022-09-28T10:32:36.771Z,54.72
2022-09-28T10:35:12.827Z,54.85
2022-09-28T10:37:57.903Z,55.63
2022-09-28T10:40:40.858Z,56.34
2022-09-28T10:43:23.509Z,56.95
2022-09-28T10:46:11.299Z,56.67
2022-09-28T10:48:48.952Z,57.86
2022-09-28T10:51:16.609Z,56.88
2022-09-28T10:53:58.765Z,57.83
2022-09-28T10:56:29.278Z,57.70
2022-09-28T10:58:56.091Z,57.26
2022-09-28T11:01:26.770Z,56.52
2022-09-28T11:04:00.033Z,55.72
2022-09-28T11:06:29.121Z,56.33
2022-09-28T11:08:58.669Z,56.38
2022-09-28T11:11:25.636Z,56.10
2022-09-28T11:14:01.124Z,56.69
2022-09-28T11:16:33.079Z,56.02
2022-09-28T11:19:20.669Z,56.67
2022-09-28T11:21:47.478Z,56.10
2022-09-28T11:24:23.093Z,57.39
2022-09-28T11:26:56.554Z,56.37
2022-09-28T11:29:44.065Z,56.93
2022-09-28T11:32:15.005Z,55.38
2022-09-28T11:34:59.130Z,55.70
2022-09-28T11:38:04.023Z,55.18
2022-09-28T11:41:24.632Z,56.47
2022-09-28T11:43:54.145Z,55.38
2022-09-28T11:46:33.090Z,54.89
2022-09-28T11:49:07.065Z,55.00
2022-09-28T11:51:36.479Z,55.51
2022-09-28T11:54:14.401Z,54.61
2022-09-28T11:56:47.990Z,54.08
2022-09-28T11:59:16.043Z,55.32
2022-09-28T12:01:51.811Z,55.33
2022-09-28T12:04:26.719Z,55.91
2022-09-28T12:06:59.105Z,55.91
2022-09-28T12:10:10.391Z,55.99
2022-09-28T12:12:45.689Z,56.31
2022-09-28T12:15:18.798Z,56.55
2022-09-28T12:17:50.719Z,56.57
2022-09-28T12:20:25.044Z,57.75
2022-09-28T12:23:25.946Z,56.51
2022-09-28T12:26:02.037Z,55.65
2022-09-28T12:28:28.823Z,56.53
2022-09-28T12:30:58.409Z,56.24
2022-09-28T12:33:25.234Z,56.88
2022-09-28T12:36:15.151Z,57.29
2022-09-28T12:39:21.712Z,57.26
2022-09-28T12:42:00.009Z,57.81
2022-09-28T12:44:57.159Z,57.11
2022-09-28T12:47:41.357Z,57.28
2022-09-28T12:50:54.520Z,57.17
2022-09-28T12:53:31.159Z,57.85
2022-09-28T12:55:57.946Z,57.92
2022-09-28T12:59:09.088Z,57.43
2022-09-28T13:01:49.994Z,56.90
2022-09-28T13:04:44.042Z,57.75
2022-09-28T13:07:50.704Z,57.51
2022-09-28T13:10:17.494Z,54.46
2022-09-28T13:13:07.685Z,54.69
2022-09-28T13:15:36.693Z,54.76
2022-09-28T13:18:11.022Z,55.69
2022-09-28T13:20:43.980Z,56.79
2022-09-28T13:23:23.917Z,56.99
2022-09-28T13:26:17.935Z,57.25
2022-09-28T13:28:47.027Z,57.20
2022-09-28T13:31:19.144Z,56.95
2022-09-28T13:33:46.722Z,57.68
2022-09-28T13:36:26.221Z,57.58
2022-09-28T13:38:57.013Z,57.54
2022-09-28T13:41:32.217Z,57.38
2022-09-28T13:44:11.581Z,56.79
2022-09-28T13:46:55.081Z,57.09
2022-09-28T13:49:27.697Z,57.47
2022-09-28T13:52:12.589Z,56.82
2022-09-28T13:54:57.684Z,55.91
2022-09-28T13:57:31.762Z,56.01
2022-09-28T14:00:08.462Z,56.58
2022-09-28T14:02:48.500Z,56.16
2022-09-28T14:05:27.045Z,57.02
2022-09-28T14:08:08.907Z,57.25
2022-09-28T14:10:55.894Z,57.27
2022-09-28T14:13:40.872Z,57.47
2022-09-28T14:16:27.513Z,57.60
2022-09-28T14:19:09.249Z,57.46
2022-09-28T14:21:54.227Z,57.55
2022-09-28T14:24:55.573Z,58.48
2022-09-28T14:27:51.720Z,58.01
2022-09-28T14:30:24.924Z,58.66
2022-09-28T14:32:59.876Z,58.65
2022-09-28T14:35:43.511Z,57.76
2022-09-28T14:38:38.612Z,58.53
2022-09-28T14:41:13.753Z,58.21
2022-09-28T14:43:46.571Z,57.72
2022-09-28T14:46:19.743Z,57.54
2022-09-28T14:48:52.769Z,57.74
2022-09-28T14:51:33.081Z,58.13
2022-09-28T14:54:02.424Z,57.95
2022-09-28T14:56:32.887Z,58.02
2022-09-28T14:59:00.317Z,57.97
2022-09-28T15:01:27.878Z,57.92
2022-09-28T15:03:57.296Z,58.13
2022-09-28T15:06:24.535Z,58.39
2022-09-28T15:08:51.546Z,58.53
2022-09-28T15:11:21.199Z,58.50
2022-09-28T15:13:48.138Z,58.60
2022-09-28T15:16:17.090Z,58.68
2022-09-28T15:18:56.247Z,58.61
2022-09-28T15:21:24.041Z,59.23
2022-09-28T15:23:50.993Z,59.36
2022-09-28T15:26:27.469Z,59.66
2022-09-28T15:28:54.801Z,60.19
2022-09-28T15:31:24.361Z,60.30
2022-09-28T15:34:10.191Z,60.22
2022-09-28T15:36:41.766Z,60.75
2022-09-28T15:39:20.598Z,61.18
2022-09-28T15:41:49.097Z,61.14
2022-09-28T15:44:15.973Z,61.23
2022-09-28T15:46:51.978Z,61.23
2022-09-28T15:49:26.965Z,61.69
2022-09-28T15:51:56.147Z,62.23
2022-09-28T15:54:35.221Z,62.54
2022-09-28T15:57:02.900Z,63.04
2022-09-28T15:59:38.209Z,63.28
2022-09-28T16:02:18.111Z,64.01
2022-09-28T16:04:56.016Z,64.11
2022-09-28T16:07:33.776Z,64.22
2022-09-28T16:10:12.831Z,64.66
2022-09-28T16:12:46.195Z,65.10
2022-09-28T16:15:21.125Z,65.82
2022-09-28T16:17:56.983Z,65.62
2022-09-28T16:20:34.110Z,66.42
2022-09-28T16:23:08.509Z,65.94
2022-09-28T16:25:37.453Z,66.38
2022-09-28T16:28:04.908Z,66.60
2022-09-28T16:30:33.732Z,66.77
2022-09-28T16:33:03.073Z,67.37
2022-09-28T16:35:40.941Z,67.72
2022-09-28T16:38:15.852Z,67.58
2022-09-28T16:40:44.265Z,67.53
2022-09-28T16:43:20.315Z,67.31
2022-09-28T16:45:47.103Z,68.27
2022-09-28T16:48:16.434Z,67.95
2022-09-28T16:50:45.147Z,68.53
2022-09-28T16:53:33.866Z,68.31
2022-09-28T16:56:02.030Z,68.36
2022-09-28T16:58:31.201Z,68.55
2022-09-28T17:00:58.793Z,68.62
2022-09-28T17:03:26.725Z,68.71
2022-09-28T17:05:55.123Z,68.90
2022-09-28T17:08:24.118Z,69.23
2022-09-28T17:11:18.054Z,69.91
2022-09-28T17:13:46.594Z,70.04
2022-09-28T17:16:28.186Z,71.31
2022-09-28T17:19:26.873Z,72.12
2022-09-28T17:21:54.415Z,73.09
2022-09-28T17:24:21.422Z,72.33
2022-09-28T17:26:50.254Z,72.72
2022-09-28T17:29:18.595Z,72.65
2022-09-28T17:31:46.483Z,72.20
2022-09-28T17:34:16.099Z,71.80
2022-09-28T17:36:43.807Z,71.49
2022-09-28T17:39:15.264Z,71.36
2022-09-28T17:41:42.271Z,71.23
2022-09-28T17:44:09.165Z,71.15
2022-09-28T17:46:40.831Z,71.25
2022-09-28T17:49:10.620Z,71.27
2022-09-28T17:51:37.703Z,72.81
2022-09-28T17:54:06.078Z,73.54
2022-09-28T17:56:32.940Z,73.79
2022-09-28T17:59:08.280Z,74.96
2022-09-28T18:01:38.813Z,74.61
2022-09-28T18:04:08.075Z,73.83
2022-09-28T18:06:39.421Z,73.33
2022-09-28T18:09:06.317Z,73.11
2022-09-28T18:11:33.782Z,72.45
2022-09-28T18:14:00.849Z,73.12
2022-09-28T18:16:28.888Z,73.88
2022-09-28T18:18:55.976Z,75.93
2022-09-28T18:21:22.809Z,77.11
2022-09-28T18:23:49.570Z,76.33
2022-09-28T18:26:19.005Z,77.17
2022-09-28T18:28:46.631Z,78.84
2022-09-28T18:31:15.149Z,80.44
2022-09-28T18:33:42.045Z,80.92
2022-09-28T18:36:08.985Z,82.50
2022-09-28T18:38:36.719Z,82.87
2022-09-28T18:41:21.848Z,83.65
2022-09-28T18:43:49.937Z,86.22
2022-09-28T18:46:20.306Z,87.90
2022-09-28T18:48:47.799Z,88.01
2022-09-28T18:51:15.202Z,88.85
2022-09-28T18:53:42.142Z,89.61
2022-09-28T18:56:11.088Z,89.16
2022-09-28T18:58:39.501Z,89.73
2022-09-28T19:01:28.580Z,91.82
2022-09-28T19:03:55.259Z,93.26
2022-09-28T19:06:22.303Z,95.00
2022-09-28T19:08:53.371Z,95.85
2022-09-28T19:11:21.568Z,97.81
2022-09-28T19:13:48.480Z,98.01
2022-09-28T19:16:25.095Z,96.04
2022-09-28T19:18:53.734Z,97.01
2022-09-28T19:21:22.716Z,95.60
2022-09-28T19:23:50.111Z,96.39
2022-09-28T19:26:20.880Z,97.40
2022-09-28T19:28:48.320Z,97.50
2022-09-28T19:31:15.597Z,99.60
2022-09-28T19:33:42.368Z,99.11
2022-09-28T19:36:12.165Z,99.23
2022-09-28T19:38:39.920Z,100.00
2022-09-28T19:41:10.695Z,99.54
2022-09-28T19:43:38.303Z,99.98
2022-09-28T19:46:06.617Z,100.00
2022-09-28T19:48:34.375Z,99.88
2022-09-28T19:51:06.220Z,99.41
2022-09-28T19:53:37.849Z,99.76
2022-09-28T19:56:05.595Z,100.00
2022-09-28T19:58:36.596Z,100.00
2022-09-28T20:01:07.182Z,100.00
2022-09-28T20:03:34.815Z,100.00
2022-09-28T20:06:02.055Z,100.00
2022-09-28T20:08:32.065Z,100.00
2022-09-28T20:10:59.856Z,100.00
2022-09-28T20:13:31.919Z,100.00
2022-09-28T20:16:10.167Z,100.00
2022-09-28T20:18:39.014Z,100.00
2022-09-28T20:21:10.606Z,100.00
2022-09-28T20:23:37.514Z,100.00
2022-09-28T20:26:05.301Z,100.00
2022-09-28T20:28:33.371Z,100.00
2022-09-28T20:31:38.102Z,100.00
2022-09-28T20:34:05.829Z,100.00
2022-09-28T20:36:33.213Z,100.00
2022-09-28T20:39:04.041Z,100.00
2022-09-28T20:41:35.662Z,100.00
2022-09-28T20:44:05.568Z,100.00
2022-09-28T20:46:35.945Z,100.00
2022-09-28T20:49:03.941Z,100.00
2022-09-28T20:51:30.964Z,100.00
2022-09-28T20:53:58.996Z,100.00
2022-09-28T20:56:31.570Z,100.00
2022-09-28T20:58:58.450Z,100.00
2022-09-28T21:01:30.482Z,100.00
2022-09-28T21:04:02.083Z,100.00
2022-09-28T21:06:33.707Z,100.00
2022-09-28T21:09:01.269Z,100.00
2022-09-28T21:11:29.790Z,100.00
2022-09-28T21:13:58.951Z,100.00
2022-09-28T21:16:27.855Z,100.00
2022-09-28T21:18:54.856Z,100.00
2022-09-28T21:21:23.098Z,100.00
2022-09-28T21:23:56.987Z,100.00
2022-09-28T21:26:26.691Z,100.00
2022-09-28T21:28:58.792Z,100.00
2022-09-28T21:31:29.185Z,100.00
2022-09-28T21:33:57.432Z,100.00
2022-09-28T21:36:24.764Z,100.00
2022-09-28T21:38:52.355Z,100.00
2022-09-28T21:41:19.141Z,100.00
2022-09-28T21:43:45.928Z,100.00
2022-09-28T21:46:13.094Z,100.00
2022-09-28T21:48:41.898Z,100.00
2022-09-28T21:51:13.551Z,100.00
2022-09-28T21:53:41.578Z,100.00
2022-09-28T21:56:12.363Z,100.00
2022-09-28T21:58:40.817Z,100.00
2022-09-28T22:01:15.820Z,100.00
2022-09-28T22:03:45.446Z,100.00
2022-09-28T22:06:14.560Z,100.00
2022-09-28T22:08:41.862Z,100.00
2022-09-28T22:11:11.702Z,100.00
2022-09-28T22:13:47.151Z,100.00
2022-09-28T22:16:15.682Z,100.00
2022-09-28T22:18:43.157Z,100.00
2022-09-28T22:21:15.394Z,100.00
2022-09-28T22:23:42.203Z,100.00
2022-09-28T22:26:25.981Z,100.00
2022-09-28T22:29:00.440Z,100.00
2022-09-28T22:31:30.375Z,100.00
2022-09-28T22:33:58.094Z,100.00
2022-09-28T22:36:25.947Z,100.00
2022-09-28T22:38:54.214Z,100.00
2022-09-28T22:41:21.236Z,100.00
2022-09-28T22:43:49.704Z,100.00
2022-09-28T22:46:21.937Z,100.00
2022-09-28T22:48:51.218Z,100.00
2022-09-28T22:51:18.719Z,100.00
2022-09-28T22:53:45.695Z,100.00
2022-09-28T22:56:18.181Z,100.00
2022-09-28T22:58:45.759Z,100.00
2022-09-28T23:01:15.082Z,100.00
2022-09-28T23:03:42.610Z,100.00
2022-09-28T23:06:10.950Z,100.00
2022-09-28T23:08:38.356Z,100.00
2022-09-28T23:11:06.162Z,100.00
2022-09-28T23:13:33.218Z,100.00
2022-09-28T23:16:05.641Z,100.00
2022-09-28T23:18:35.014Z,100.00
2022-09-28T23:21:04.320Z,100.00
2022-09-28T23:23:33.279Z,100.00
2022-09-28T23:26:01.569Z,100.00
2022-09-28T23:28:29.373Z,100.00
2022-09-28T23:30:56.653Z,100.00
2022-09-28T23:33:23.710Z,100.00
2022-09-28T23:35:51.121Z,100.00
2022-09-28T23:38:18.454Z,100.00
2022-09-28T23:40:46.740Z,100.00
2022-09-28T23:43:14.351Z,100.00
2022-09-28T23:45:43.881Z,100.00
2022-09-28T23:48:11.743Z,100.00
2022-09-28T23:50:38.553Z,100.00
2022-09-28T23:53:05.718Z,100.00
2022-09-28T23:55:33.081Z,100.00
2022-09-28T23:57:59.885Z,100.00
